Time;durP1;ratioP1;P1;durP2;ratioP2;P2;SDS_P1;SDS_P2;PMS_P1;PMS_P2;Temp;Humidity;BMP_temperature;BMP_pressure;BME280_temperature;BME280_humidity;BME280_pressure;Samples;Min_cycle;Max_cycle;Signal;HPM_P1;HPM_P2
2021/05/03 00:00:24;;;;;;;;;;;6.60;99.90;;;;;;5094227;28;25170;-53
2021/05/03 00:02:50;;;;;;;;;;;6.60;99.90;;;;;;5098810;28;25071;-57
2021/05/03 00:05:20;;;;;;;;;;;6.50;99.90;;;;;;5093444;28;25077;-56
2021/05/03 00:07:46;;;;;;;;;;;6.50;99.90;;;;;;5093133;28;25065;-54
2021/05/03 00:10:12;;;;;;;;;;;6.50;99.90;;;;;;5101841;28;25073;-56
2021/05/03 00:12:38;;;;;;;;;;;6.50;99.90;;;;;;5093143;28;25069;-56
2021/05/03 00:15:05;;;;;;;;;;;6.50;99.90;;;;;;5095738;28;25066;-54
2021/05/03 00:17:30;;;;;;;;;;;6.50;99.90;;;;;;5097989;28;25075;-55
2021/05/03 00:19:56;;;;;;;;;;;6.40;99.90;;;;;;5093515;28;25070;-55
2021/05/03 00:22:22;;;;;;;;;;;6.40;99.90;;;;;;5092325;28;25070;-56
2021/05/03 00:24:48;;;;;;;;;;;6.40;99.90;;;;;;5094276;28;25163;-56
2021/05/03 00:27:14;;;;;;;;;;;6.40;99.90;;;;;;5097619;28;24076;-54
2021/05/03 00:29:40;;;;;;;;;;;6.40;99.90;;;;;;5099862;28;19912;-56
2021/05/03 00:32:06;;;;;;;;;;;6.40;99.90;;;;;;5095860;28;19904;-56
2021/05/03 00:34:32;;;;;;;;;;;6.40;99.90;;;;;;5093342;28;20364;-56
2021/05/03 00:36:58;;;;;;;;;;;6.40;99.90;;;;;;5096641;28;19916;-56
2021/05/03 00:39:24;;;;;;;;;;;6.40;99.90;;;;;;5097608;28;19924;-57
2021/05/03 00:41:50;;;;;;;;;;;6.30;99.90;;;;;;5093793;28;20279;-54
2021/05/03 00:44:16;;;;;;;;;;;6.30;99.90;;;;;;5096325;28;19912;-55
2021/05/03 00:46:41;;;;;;;;;;;6.30;99.90;;;;;;5100740;28;19943;-56
2021/05/03 00:49:07;;;;;;;;;;;6.30;99.90;;;;;;5093445;28;19919;-55
2021/05/03 00:51:33;;;;;;;;;;;6.30;99.90;;;;;;5098113;28;19978;-56
2021/05/03 00:53:59;;;;;;;;;;;6.30;99.90;;;;;;5099268;28;19915;-53
2021/05/03 00:56:25;;;;;;;;;;;6.30;99.90;;;;;;5101295;28;19915;-53
2021/05/03 00:58:51;;;;;;;;;;;6.30;99.90;;;;;;5093142;28;20289;-57
2021/05/03 01:01:17;;;;;;;;;;;6.30;99.90;;;;;;5092039;28;20042;-54
2021/05/03 01:03:43;;;;;;;;;;;6.30;99.90;;;;;;5093189;28;20357;-55
2021/05/03 01:06:09;;;;;;;;;;;6.30;99.90;;;;;;5092987;28;19912;-55
2021/05/03 01:08:34;;;;;;;;;;;6.20;99.90;;;;;;5093265;28;19908;-54
2021/05/03 01:11:00;;;;;;;;;;;6.20;99.90;;;;;;5101029;28;20349;-54
2021/05/03 01:13:26;;;;;;;;;;;6.20;99.90;;;;;;5096447;27;19916;-54
2021/05/03 01:15:52;;;;;;;;;;;6.20;99.90;;;;;;5095648;28;20010;-55
2021/05/03 01:18:24;;;;;;;;;;;6.20;99.90;;;;;;5095243;28;20387;-56
2021/05/03 01:20:53;;;;;;;;;;;6.20;99.90;;;;;;5094165;28;19912;-53
2021/05/03 01:23:19;;;;;;;;;;;6.10;99.90;;;;;;5096478;28;19912;-55
2021/05/03 01:25:45;;;;;;;;;;;6.10;99.90;;;;;;5095286;28;20470;-55
2021/05/03 01:28:11;;;;;;;;;;;6.10;99.90;;;;;;5093704;28;19919;-56
2021/05/03 01:30:40;;;;;;;;;;;6.10;99.90;;;;;;5100864;28;19938;-56
2021/05/03 01:33:07;;;;;;;;;;;6.10;99.90;;;;;;5091514;28;19908;-53
2021/05/03 01:35:33;;;;;;;;;;;6.10;99.90;;;;;;5111882;28;19923;-53
2021/05/03 01:37:59;;;;;;;;;;;6.10;99.90;;;;;;5104307;28;19904;-53
2021/05/03 01:40:25;;;;;;;;;;;6.10;99.90;;;;;;5097188;27;20284;-56
2021/05/03 01:42:51;;;;;;;;;;;6.10;99.90;;;;;;5105001;28;19919;-55
2021/05/03 01:45:24;;;;;;;;;;;6.10;99.90;;;;;;5094095;28;19907;-54
2021/05/03 01:47:50;;;;;;;;;;;6.10;99.90;;;;;;5095614;28;19926;-55
2021/05/03 01:50:17;;;;;;;;;;;6.10;99.90;;;;;;5100354;28;20309;-55
2021/05/03 01:52:43;;;;;;;;;;;6.10;99.90;;;;;;5091501;28;19916;-53
2021/05/03 01:55:09;;;;;;;;;;;6.10;99.90;;;;;;5092808;28;19922;-53
2021/05/03 01:57:35;;;;;;;;;;;6.10;99.90;;;;;;5095050;28;20261;-56
2021/05/03 02:00:01;;;;;;;;;;;6.10;99.90;;;;;;5098364;28;19915;-56
2021/05/03 02:02:27;;;;;;;;;;;6.10;99.90;;;;;;5091798;28;19965;-56
2021/05/03 02:04:53;;;;;;;;;;;6.10;99.90;;;;;;5090704;28;19912;-56
2021/05/03 02:07:19;;;;;;;;;;;6.10;99.90;;;;;;5091935;28;19915;-55
2021/05/03 02:09:45;;;;;;;;;;;6.10;99.90;;;;;;5091820;28;20357;-55
2021/05/03 02:12:11;;;;;;;;;;;6.20;99.90;;;;;;5090685;28;19912;-55
2021/05/03 02:14:37;;;;;;;;;;;6.20;99.90;;;;;;5094759;28;19935;-53
2021/05/03 02:17:03;;;;;;;;;;;6.20;99.90;;;;;;5096511;28;19908;-55
2021/05/03 02:19:29;;;;;;;;;;;6.10;99.90;;;;;;5097189;28;19920;-53
2021/05/03 02:21:55;;;;;;;;;;;6.10;99.90;;;;;;5095636;28;19919;-55
2021/05/03 02:24:21;;;;;;;;;;;6.10;99.90;;;;;;5098255;28;19918;-56
2021/05/03 02:26:47;;;;;;;;;;;6.10;99.90;;;;;;5091677;28;19915;-55
2021/05/03 02:29:13;;;;;;;;;;;6.10;99.90;;;;;;5095159;28;19908;-53
2021/05/03 02:31:38;;;;;;;;;;;6.10;99.90;;;;;;5095141;28;19916;-55
2021/05/03 02:34:04;;;;;;;;;;;6.10;99.90;;;;;;5097847;28;19981;-55
2021/05/03 02:36:30;;;;;;;;;;;6.10;99.90;;;;;;5096696;28;19989;-54
2021/05/03 02:38:56;;;;;;;;;;;6.00;99.90;;;;;;5094020;28;19923;-56
2021/05/03 02:41:22;;;;;;;;;;;6.00;99.90;;;;;;5094725;28;20368;-51
2021/05/03 02:43:48;;;;;;;;;;;6.00;99.90;;;;;;5092130;28;20019;-55
2021/05/03 02:46:14;;;;;;;;;;;6.00;99.90;;;;;;5090828;28;20395;-55
2021/05/03 02:48:40;;;;;;;;;;;6.00;99.90;;;;;;5091121;28;19912;-56
2021/05/03 02:51:06;;;;;;;;;;;6.00;99.90;;;;;;5096649;28;20364;-55
2021/05/03 02:53:32;;;;;;;;;;;6.00;99.90;;;;;;5090472;28;19908;-55
2021/05/03 02:55:58;;;;;;;;;;;5.90;99.90;;;;;;5090892;28;19908;-55
2021/05/03 02:58:24;;;;;;;;;;;5.90;99.90;;;;;;5091467;28;19919;-51
2021/05/03 03:00:50;;;;;;;;;;;5.90;99.90;;;;;;5099818;28;19908;-53
2021/05/03 03:03:15;;;;;;;;;;;6.00;99.90;;;;;;5094996;28;19908;-52
2021/05/03 03:05:41;;;;;;;;;;;6.00;99.90;;;;;;5095007;28;20373;-52
2021/05/03 03:08:07;;;;;;;;;;;5.90;99.90;;;;;;5106289;28;19908;-52
2021/05/03 03:10:33;;;;;;;;;;;5.90;99.90;;;;;;5091580;28;19908;-52
2021/05/03 03:13:01;;;;;;;;;;;5.90;99.90;;;;;;5092871;28;20367;-52
2021/05/03 03:15:31;;;;;;;;;;;5.90;99.90;;;;;;5092133;28;19908;-55
2021/05/03 03:17:57;;;;;;;;;;;5.90;99.90;;;;;;5098398;28;19912;-56
2021/05/03 03:20:23;;;;;;;;;;;5.90;99.90;;;;;;5091072;28;19930;-56
2021/05/03 03:22:49;;;;;;;;;;;5.90;99.90;;;;;;5090836;28;19912;-54
2021/05/03 03:25:15;;;;;;;;;;;5.90;99.90;;;;;;5093468;28;19916;-55
2021/05/03 03:27:41;;;;;;;;;;;5.90;99.90;;;;;;5098229;28;20333;-61
2021/05/03 03:30:08;;;;;;;;;;;5.90;99.90;;;;;;5095985;27;19912;-52
2021/05/03 03:32:34;;;;;;;;;;;5.90;99.90;;;;;;5098892;28;19912;-56
2021/05/03 03:35:00;;;;;;;;;;;5.80;99.90;;;;;;5097760;28;19916;-56
2021/05/03 03:37:26;;;;;;;;;;;5.70;99.90;;;;;;5098158;28;19917;-55
2021/05/03 03:39:52;;;;;;;;;;;5.80;99.90;;;;;;5100375;28;19916;-55
2021/05/03 03:42:18;;;;;;;;;;;5.80;99.90;;;;;;5095356;28;20272;-54
2021/05/03 03:44:44;;;;;;;;;;;5.80;99.90;;;;;;5092534;28;19919;-56
2021/05/03 03:47:10;;;;;;;;;;;5.70;99.90;;;;;;5094180;28;19911;-56
2021/05/03 03:49:36;;;;;;;;;;;5.70;99.90;;;;;;5095231;28;19908;-55
2021/05/03 03:52:02;;;;;;;;;;;5.70;99.90;;;;;;5094481;28;20360;-55
2021/05/03 03:54:28;;;;;;;;;;;5.70;99.90;;;;;;5094011;28;19958;-55
2021/05/03 03:56:53;;;;;;;;;;;5.70;99.90;;;;;;5094495;28;19908;-56
2021/05/03 03:59:19;;;;;;;;;;;5.70;99.90;;;;;;5095153;28;19927;-57
2021/05/03 04:01:46;;;;;;;;;;;5.80;99.90;;;;;;5105409;28;19908;-56
2021/05/03 04:04:21;;;;;;;;;;;5.80;99.90;;;;;;5101396;28;19920;-55
2021/05/03 04:06:58;;;;;;;;;;;5.80;99.90;;;;;;5113634;28;19933;-57
2021/05/03 04:09:29;;;;;;;;;;;5.80;99.90;;;;;;5111515;28;19904;-57
2021/05/03 04:25:18;;;;;;;;;;;6.10;99.90;;;;;;5109503;28;19916;-54
2021/05/03 04:27:44;;;;;;;;;;;6.10;99.90;;;;;;5108544;28;19911;-56
2021/05/03 04:30:10;;;;;;;;;;;6.10;99.90;;;;;;5106877;28;19911;-57
2021/05/03 04:32:36;;;;;;;;;;;6.20;99.90;;;;;;5096615;28;20375;-56
2021/05/03 04:35:02;;;;;;;;;;;6.20;99.90;;;;;;5096387;28;19920;-60
2021/05/03 04:37:28;;;;;;;;;;;6.20;99.90;;;;;;5112999;28;19911;-57
2021/05/03 04:39:55;;;;;;;;;;;6.30;99.90;;;;;;5115941;28;19927;-57
2021/05/03 04:42:21;;;;;;;;;;;6.30;99.90;;;;;;5110510;28;20015;-56
2021/05/03 04:44:47;;;;;;;;;;;6.40;99.90;;;;;;5100126;28;19912;-57
2021/05/03 04:47:12;;;;;;;;;;;6.40;99.90;;;;;;5095871;28;19908;-56
2021/05/03 04:49:38;;;;;;;;;;;6.50;99.90;;;;;;5093953;28;20463;-58
2021/05/03 04:52:04;;;;;;;;;;;6.50;99.90;;;;;;5094709;28;20530;-56
2021/05/03 04:54:30;;;;;;;;;;;6.50;99.90;;;;;;5095199;28;19912;-57
2021/05/03 04:56:56;;;;;;;;;;;6.60;99.90;;;;;;5094915;28;19912;-56
2021/05/03 04:59:22;;;;;;;;;;;6.70;99.90;;;;;;5094344;28;19920;-57
2021/05/03 05:01:48;;;;;;;;;;;6.70;99.90;;;;;;5095217;28;20246;-56
2021/05/03 05:04:14;;;;;;;;;;;6.70;99.90;;;;;;5094877;28;19912;-57
2021/05/03 05:06:40;;;;;;;;;;;6.80;99.90;;;;;;5094909;28;19912;-57
2021/05/03 05:09:06;;;;;;;;;;;6.90;99.90;;;;;;5093814;28;19912;-58
2021/05/03 05:11:32;;;;;;;;;;;7.10;99.90;;;;;;5094005;28;19912;-55
2021/05/03 05:13:58;;;;;;;;;;;7.20;99.90;;;;;;5093174;28;19915;-55
2021/05/03 05:16:24;;;;;;;;;;;7.30;99.90;;;;;;5093593;28;20292;-55
2021/05/03 05:18:49;;;;;;;;;;;7.40;99.90;;;;;;5093637;28;19918;-56
2021/05/03 05:21:15;;;;;;;;;;;7.50;99.90;;;;;;5092465;28;19912;-56
2021/05/03 05:23:41;;;;;;;;;;;7.70;99.90;;;;;;5093534;28;20370;-56
2021/05/03 05:26:08;;;;;;;;;;;7.80;99.90;;;;;;5093305;28;19912;-57
2021/05/03 05:28:34;;;;;;;;;;;8.00;99.90;;;;;;5093150;28;19912;-52
2021/05/03 05:31:00;;;;;;;;;;;8.00;99.90;;;;;;5093160;28;19908;-55
2021/05/03 05:33:26;;;;;;;;;;;8.10;99.90;;;;;;5093923;28;19972;-55
2021/05/03 05:35:52;;;;;;;;;;;8.20;99.90;;;;;;5093543;28;19935;-55
2021/05/03 05:38:18;;;;;;;;;;;8.30;99.90;;;;;;5089967;28;19908;-54
2021/05/03 05:40:44;;;;;;;;;;;8.40;99.90;;;;;;5090939;28;20369;-55
2021/05/03 05:43:10;;;;;;;;;;;8.30;99.90;;;;;;5092883;28;19912;-55
2021/05/03 05:45:36;;;;;;;;;;;8.30;99.90;;;;;;5093098;28;20383;-56
2021/05/03 05:48:02;;;;;;;;;;;8.40;99.90;;;;;;5092053;28;19950;-55
2021/05/03 05:50:28;;;;;;;;;;;8.50;99.90;;;;;;5092759;28;19912;-53
2021/05/03 05:52:54;;;;;;;;;;;8.50;99.90;;;;;;5091674;28;19912;-56
2021/05/03 05:55:20;;;;;;;;;;;8.60;99.90;;;;;;5092870;28;19912;-55
2021/05/03 05:57:46;;;;;;;;;;;8.70;99.90;;;;;;5091322;28;19920;-54
2021/05/03 06:00:12;;;;;;;;;;;8.60;99.90;;;;;;5091216;28;19915;-56
2021/05/03 06:02:38;;;;;;;;;;;8.50;99.90;;;;;;5091937;28;19919;-56
2021/05/03 06:05:04;;;;;;;;;;;8.50;99.90;;;;;;5091991;28;19962;-54
2021/05/03 06:07:30;;;;;;;;;;;8.50;99.90;;;;;;5092437;28;19912;-55
2021/05/03 06:09:56;;;;;;;;;;;8.50;99.90;;;;;;5092094;28;20035;-56
2021/05/03 06:12:22;;;;;;;;;;;8.50;99.90;;;;;;5092730;28;19912;-55
2021/05/03 06:14:48;;;;;;;;;;;8.60;99.90;;;;;;5091290;28;20310;-56
2021/05/03 06:17:15;;;;;;;;;;;8.60;99.90;;;;;;5092226;28;19912;-53
2021/05/03 06:19:41;;;;;;;;;;;8.70;99.90;;;;;;5091865;28;19920;-56
2021/05/03 06:22:07;;;;;;;;;;;8.70;99.90;;;;;;5092173;28;19939;-56
2021/05/03 06:24:33;;;;;;;;;;;8.80;99.90;;;;;;5091448;28;20364;-56
2021/05/03 06:26:59;;;;;;;;;;;8.90;99.90;;;;;;5091536;28;19912;-57
2021/05/03 06:29:26;;;;;;;;;;;8.90;99.90;;;;;;5091941;28;19923;-56
2021/05/03 06:31:53;;;;;;;;;;;8.80;99.90;;;;;;5091739;28;19912;-56
2021/05/03 06:34:19;;;;;;;;;;;8.90;99.90;;;;;;5089634;28;19924;-57
2021/05/03 06:36:45;;;;;;;;;;;8.90;99.90;;;;;;5091422;28;19916;-56
2021/05/03 06:39:11;;;;;;;;;;;8.90;99.90;;;;;;5090931;28;20273;-56
2021/05/03 06:41:36;;;;;;;;;;;9.00;99.90;;;;;;5092418;28;19923;-58
2021/05/03 06:44:02;;;;;;;;;;;8.90;99.90;;;;;;5092031;28;19919;-55
2021/05/03 06:46:28;;;;;;;;;;;8.90;99.90;;;;;;5093939;28;19954;-56
2021/05/03 06:48:54;;;;;;;;;;;8.80;99.90;;;;;;5092872;28;20383;-58
2021/05/03 06:51:20;;;;;;;;;;;8.80;99.90;;;;;;5091926;28;19911;-58
2021/05/03 06:53:46;;;;;;;;;;;8.90;99.90;;;;;;5092521;28;19915;-58
2021/05/03 06:56:12;;;;;;;;;;;8.90;99.90;;;;;;5091288;28;19912;-58
2021/05/03 06:58:38;;;;;;;;;;;8.90;99.90;;;;;;5090483;28;20364;-57
2021/05/03 07:01:06;;;;;;;;;;;8.90;99.90;;;;;;5091542;28;19916;-57
2021/05/03 07:03:32;;;;;;;;;;;9.10;99.90;;;;;;5091122;28;19920;-57
2021/05/03 07:05:57;;;;;;;;;;;9.10;99.90;;;;;;5091267;28;20291;-56
2021/05/03 07:08:25;;;;;;;;;;;9.20;99.90;;;;;;5091267;28;19912;-58
2021/05/03 07:10:54;;;;;;;;;;;9.30;99.90;;;;;;5091536;28;19908;-57
2021/05/03 07:13:20;;;;;;;;;;;9.40;99.90;;;;;;5091926;28;19919;-57
2021/05/03 07:15:46;;;;;;;;;;;9.30;99.90;;;;;;5091955;28;20003;-59
2021/05/03 07:18:12;;;;;;;;;;;9.50;99.90;;;;;;5090417;28;19915;-58
2021/05/03 07:20:38;;;;;;;;;;;9.60;99.90;;;;;;5090854;28;19920;-58
2021/05/03 07:23:04;;;;;;;;;;;9.80;99.90;;;;;;5091445;28;20292;-55
2021/05/03 07:25:30;;;;;;;;;;;9.80;99.90;;;;;;5091648;28;20031;-58
2021/05/03 07:27:56;;;;;;;;;;;10.00;99.90;;;;;;5090168;28;19908;-58
2021/05/03 07:30:22;;;;;;;;;;;10.10;99.90;;;;;;5091451;28;19912;-58
2021/05/03 07:32:48;;;;;;;;;;;10.30;99.90;;;;;;5091234;28;19912;-59
2021/05/03 07:35:14;;;;;;;;;;;10.50;99.90;;;;;;5091132;28;20010;-59
2021/05/03 07:37:40;;;;;;;;;;;10.50;99.90;;;;;;5090748;28;19930;-58
2021/05/03 07:40:06;;;;;;;;;;;10.50;99.90;;;;;;5090371;28;19931;-59
2021/05/03 07:42:32;;;;;;;;;;;10.50;99.90;;;;;;5092531;28;20277;-58
2021/05/03 07:44:58;;;;;;;;;;;10.30;99.90;;;;;;5089857;28;20007;-59
2021/05/03 07:47:25;;;;;;;;;;;10.20;99.90;;;;;;5090790;28;19915;-58
2021/05/03 07:49:52;;;;;;;;;;;9.90;99.90;;;;;;5090332;28;19919;-58
2021/05/03 07:52:18;;;;;;;;;;;9.80;99.90;;;;;;5090707;28;19912;-58
2021/05/03 07:54:44;;;;;;;;;;;9.90;99.90;;;;;;5091046;28;19922;-58
2021/05/03 07:57:10;;;;;;;;;;;9.80;99.90;;;;;;5091110;28;19912;-57
2021/05/03 07:59:36;;;;;;;;;;;9.80;99.90;;;;;;5090205;28;20288;-59
2021/05/03 08:02:01;;;;;;;;;;;9.80;99.90;;;;;;5090968;28;19915;-59
2021/05/03 08:04:27;;;;;;;;;;;9.70;99.90;;;;;;5090581;28;20007;-58
2021/05/03 08:06:57;;;;;;;;;;;9.60;99.90;;;;;;5089668;28;20349;-58
2021/05/03 08:09:26;;;;;;;;;;;9.70;99.90;;;;;;5089352;28;19908;-59
2021/05/03 08:11:53;;;;;;;;;;;9.70;99.90;;;;;;5090500;28;20272;-58
2021/05/03 08:14:20;;;;;;;;;;;9.60;99.90;;;;;;5092771;28;19912;-55
2021/05/03 08:16:50;;;;;;;;;;;9.50;99.90;;;;;;5093839;28;19916;-58
2021/05/03 08:19:16;;;;;;;;;;;9.50;99.90;;;;;;5093737;28;20414;-58
2021/05/03 08:21:42;;;;;;;;;;;9.40;99.90;;;;;;5092732;28;20268;-57
2021/05/03 08:24:08;;;;;;;;;;;9.40;99.90;;;;;;5093394;28;19915;-58
2021/05/03 08:26:33;;;;;;;;;;;9.40;99.90;;;;;;5093692;28;19912;-57
2021/05/03 08:29:00;;;;;;;;;;;9.40;99.90;;;;;;5094221;28;19947;-58
2021/05/03 08:31:26;;;;;;;;;;;9.40;99.90;;;;;;5097042;28;19926;-57
2021/05/03 08:33:52;;;;;;;;;;;9.30;99.90;;;;;;5092946;28;20284;-57
2021/05/03 08:36:18;;;;;;;;;;;9.20;99.90;;;;;;5093240;28;19916;-58
2021/05/03 08:38:43;;;;;;;;;;;9.30;99.90;;;;;;5088353;28;19915;-57
2021/05/03 08:41:12;;;;;;;;;;;9.40;99.90;;;;;;5098562;28;19920;-56
2021/05/03 08:43:40;;;;;;;;;;;9.40;99.90;;;;;;5099571;28;19912;-56
2021/05/03 08:46:09;;;;;;;;;;;9.40;99.90;;;;;;5092723;28;20309;-57
2021/05/03 08:48:53;;;;;;;;;;;9.50;99.90;;;;;;5100007;28;19912;-57
2021/05/03 08:51:35;;;;;;;;;;;9.60;99.90;;;;;;5086731;28;19919;-56
2021/05/03 08:56:33;;;;;;;;;;;9.70;99.90;;;;;;5108401;28;19939;-57
2021/05/03 08:58:59;;;;;;;;;;;9.80;99.90;;;;;;5103990;28;19924;-58
2021/05/03 09:01:25;;;;;;;;;;;9.80;99.90;;;;;;5101258;28;20022;-56
2021/05/03 09:03:52;;;;;;;;;;;9.90;99.90;;;;;;5095748;28;20357;-57
2021/05/03 09:06:18;;;;;;;;;;;10.10;99.90;;;;;;5099247;28;19923;-58
2021/05/03 09:08:44;;;;;;;;;;;10.40;99.90;;;;;;5099384;28;19912;-56
2021/05/03 09:11:13;;;;;;;;;;;10.70;99.90;;;;;;5099026;28;19924;-57
2021/05/03 09:13:39;;;;;;;;;;;10.60;99.90;;;;;;5101067;28;19923;-58
2021/05/03 09:16:18;;;;;;;;;;;10.70;99.90;;;;;;5099739;28;20285;-56
2021/05/03 09:18:44;;;;;;;;;;;10.60;99.90;;;;;;5099929;28;19912;-58
2021/05/03 09:21:17;;;;;;;;;;;10.40;99.90;;;;;;5102586;28;20284;-58
2021/05/03 09:24:01;;;;;;;;;;;10.20;99.90;;;;;;5103697;28;19919;-59
2021/05/03 09:26:33;;;;;;;;;;;9.90;99.90;;;;;;5099774;28;20387;-58
2021/05/03 09:28:59;;;;;;;;;;;9.80;99.90;;;;;;5095335;28;19931;-58
2021/05/03 09:31:25;;;;;;;;;;;9.80;99.90;;;;;;5092979;28;20326;-57
2021/05/03 09:33:51;;;;;;;;;;;10.00;99.90;;;;;;5092813;28;19935;-58
2021/05/03 09:36:18;;;;;;;;;;;10.20;99.90;;;;;;5093170;28;19919;-57
2021/05/03 09:38:44;;;;;;;;;;;10.30;99.90;;;;;;5092114;28;19916;-59
2021/05/03 09:41:26;;;;;;;;;;;10.60;99.90;;;;;;5092488;28;19920;-58
2021/05/03 09:44:10;;;;;;;;;;;10.60;99.90;;;;;;5092749;28;19923;-58
2021/05/03 09:46:39;;;;;;;;;;;10.60;99.90;;;;;;5086066;28;19975;-57
2021/05/03 09:49:08;;;;;;;;;;;10.30;99.90;;;;;;5091880;28;19912;-58
2021/05/03 09:51:37;;;;;;;;;;;10.20;99.90;;;;;;5092456;28;19912;-59
2021/05/03 09:54:13;;;;;;;;;;;10.40;99.90;;;;;;5091289;28;19919;-58
2021/05/03 09:56:49;;;;;;;;;;;10.50;99.90;;;;;;5092959;28;19912;-59
2021/05/03 09:59:42;;;;;;;;;;;10.30;99.90;;;;;;5092030;28;19919;-57
2021/05/03 10:02:28;;;;;;;;;;;10.60;99.90;;;;;;5091393;28;19924;-59
2021/05/03 10:04:56;;;;;;;;;;;12.70;99.90;;;;;;5086400;28;20380;-58
2021/05/03 10:07:22;;;;;;;;;;;13.90;99.90;;;;;;5092213;28;19912;-59
2021/05/03 10:09:52;;;;;;;;;;;13.30;99.90;;;;;;5092373;28;20402;-60
2021/05/03 10:12:18;;;;;;;;;;;13.30;99.90;;;;;;5092100;28;19917;-58
2021/05/03 10:14:44;;;;;;;;;;;15.30;99.90;;;;;;5091984;28;19924;-59
2021/05/03 10:17:11;;;;;;;;;;;15.80;99.90;;;;;;5093685;28;19912;-58
2021/05/03 10:19:36;;;;;;;;;;;14.90;99.90;;;;;;5095742;28;19927;-57
2021/05/03 10:22:04;;;;;;;;;;;13.30;99.90;;;;;;5091526;28;19916;-58
2021/05/03 10:24:29;;;;;;;;;;;12.90;99.90;;;;;;5092524;28;19927;-57
2021/05/03 10:26:55;;;;;;;;;;;12.50;99.90;;;;;;5091358;28;19912;-58
2021/05/03 10:29:40;;;;;;;;;;;12.00;99.90;;;;;;5091326;28;20426;-57
2021/05/03 10:32:06;;;;;;;;;;;11.20;99.90;;;;;;5091311;28;19919;-58
2021/05/03 10:34:39;;;;;;;;;;;11.00;99.90;;;;;;5097114;28;19920;-57
2021/05/03 10:37:26;;;;;;;;;;;11.10;99.90;;;;;;5092730;28;19912;-60
2021/05/03 10:39:51;;;;;;;;;;;11.80;99.90;;;;;;5091592;28;19919;-59
2021/05/03 10:42:17;;;;;;;;;;;13.20;99.90;;;;;;5091642;28;19924;-60
2021/05/03 10:45:06;;;;;;;;;;;13.80;99.90;;;;;;5091404;28;19923;-59
2021/05/03 10:47:38;;;;;;;;;;;13.30;99.90;;;;;;5091114;28;19912;-59
2021/05/03 10:50:18;;;;;;;;;;;12.40;99.90;;;;;;5091325;28;19916;-58
2021/05/03 10:52:44;;;;;;;;;;;11.70;99.90;;;;;;5091378;28;19916;-59
2021/05/03 10:55:10;;;;;;;;;;;11.00;99.90;;;;;;5091495;28;19916;-58
2021/05/03 10:57:36;;;;;;;;;;;10.90;99.90;;;;;;5089745;28;19923;-59
2021/05/03 11:00:06;;;;;;;;;;;11.30;99.90;;;;;;5091473;28;19924;-60
2021/05/03 11:02:35;;;;;;;;;;;11.60;99.90;;;;;;5091677;28;20293;-60
2021/05/03 11:05:07;;;;;;;;;;;11.50;99.90;;;;;;5090681;28;19912;-60
2021/05/03 11:07:33;;;;;;;;;;;11.80;99.90;;;;;;5085840;28;19912;-60
2021/05/03 11:09:59;;;;;;;;;;;11.80;99.90;;;;;;5091672;28;20369;-60
2021/05/03 11:12:26;;;;;;;;;;;11.50;99.90;;;;;;5092259;28;19946;-60
2021/05/03 11:15:07;;;;;;;;;;;11.20;99.90;;;;;;5091057;28;19920;-60
2021/05/03 11:17:33;;;;;;;;;;;11.40;99.90;;;;;;5091414;28;19919;-58
2021/05/03 11:22:43;;;;;;;;;;;11.80;99.90;;;;;;5091147;28;19919;-59
2021/05/03 11:25:18;;;;;;;;;;;12.40;99.90;;;;;;5071062;28;19912;-59
2021/05/03 11:33:15;;;;;;;;;;;15.30;99.90;;;;;;5068541;28;19998;-59
2021/05/03 11:41:03;;;;;;;;;;;14.10;99.90;;;;;;5103200;28;19924;-59
2021/05/03 11:46:12;;;;;;;;;;;13.90;99.90;;;;;;5105158;28;20356;-59
2021/05/03 11:48:38;;;;;;;;;;;13.50;99.90;;;;;;5095248;28;20372;-59
2021/05/03 11:51:10;;;;;;;;;;;13.70;99.90;;;;;;5094937;28;19912;-59
2021/05/03 11:53:37;;;;;;;;;;;13.60;99.90;;;;;;5094802;28;19911;-58
2021/05/03 11:56:20;;;;;;;;;;;13.90;99.90;;;;;;5094253;28;19904;-59
2021/05/03 11:58:46;;;;;;;;;;;15.50;99.30;;;;;;5093664;28;19911;-59
2021/05/03 12:01:19;;;;;;;;;;;16.20;97.90;;;;;;5095606;28;19923;-57
2021/05/03 12:03:45;;;;;;;;;;;16.30;97.40;;;;;;5095137;28;19926;-58
2021/05/03 12:06:29;;;;;;;;;;;16.10;95.50;;;;;;5095291;28;19915;-58
2021/05/03 12:08:59;;;;;;;;;;;15.90;95.40;;;;;;5093135;28;19911;-58
2021/05/03 12:11:25;;;;;;;;;;;16.30;97.20;;;;;;5095026;28;20345;-59
2021/05/03 12:13:52;;;;;;;;;;;15.90;94.50;;;;;;5094815;28;19919;-58
2021/05/03 12:16:34;;;;;;;;;;;14.80;95.00;;;;;;5094801;28;19912;-58
2021/05/03 12:18:59;;;;;;;;;;;14.10;99.50;;;;;;5094216;28;19908;-56
2021/05/03 12:21:25;;;;;;;;;;;14.10;98.90;;;;;;5094697;28;19935;-58
2021/05/03 12:23:51;;;;;;;;;;;14.50;96.60;;;;;;5095164;28;19919;-58
2021/05/03 12:26:17;;;;;;;;;;;14.70;94.80;;;;;;5095200;28;20284;-57
2021/05/03 12:28:43;;;;;;;;;;;14.80;95.10;;;;;;5093231;28;19912;-58
2021/05/03 12:31:09;;;;;;;;;;;14.50;94.60;;;;;;5094069;28;19908;-58
2021/05/03 12:33:35;;;;;;;;;;;14.30;94.40;;;;;;5092865;28;19915;-57
2021/05/03 12:36:01;;;;;;;;;;;14.00;95.30;;;;;;5094189;28;19927;-57
2021/05/03 12:38:29;;;;;;;;;;;13.70;94.90;;;;;;5101728;28;19916;-57
2021/05/03 12:40:55;;;;;;;;;;;13.70;95.60;;;;;;5101286;28;19927;-58
2021/05/03 12:43:31;;;;;;;;;;;13.70;97.10;;;;;;5103516;27;19912;-58
2021/05/03 12:48:44;;;;;;;;;;;13.10;96.10;;;;;;5108873;28;20288;-58
2021/05/03 12:51:32;;;;;;;;;;;12.40;97.10;;;;;;5098623;28;19919;-58
2021/05/03 12:54:18;;;;;;;;;;;12.20;96.70;;;;;;5100679;28;20017;-58
2021/05/03 12:56:56;;;;;;;;;;;12.20;97.70;;;;;;5101123;28;20301;-58
2021/05/03 12:59:28;;;;;;;;;;;12.10;97.50;;;;;;5098449;28;20643;-59
2021/05/03 13:02:08;;;;;;;;;;;12.10;97.40;;;;;;5099385;28;19920;-59
2021/05/03 13:29:00;;;;;;;;;;;11.60;98.10;;;;;;5099421;28;19912;-59
2021/05/03 13:31:27;;;;;;;;;;;11.60;99.60;;;;;;5093938;28;19912;-59
2021/05/03 13:33:52;;;;;;;;;;;11.70;99.30;;;;;;5092238;28;20085;-58
2021/05/03 13:36:18;;;;;;;;;;;12.00;99.50;;;;;;5093639;28;19912;-59
2021/05/03 13:38:46;;;;;;;;;;;12.20;98.90;;;;;;5092934;28;19916;-58
2021/05/03 13:41:12;;;;;;;;;;;12.40;97.80;;;;;;5092690;28;20393;-58
2021/05/03 13:43:38;;;;;;;;;;;12.60;99.20;;;;;;5091973;28;19916;-58
2021/05/03 13:46:04;;;;;;;;;;;12.40;98.20;;;;;;5092743;28;19919;-59
2021/05/03 13:48:30;;;;;;;;;;;12.40;98.40;;;;;;5093101;28;19931;-58
2021/05/03 13:50:56;;;;;;;;;;;12.50;99.30;;;;;;5092502;28;20364;-59
2021/05/03 13:53:22;;;;;;;;;;;12.70;99.00;;;;;;5092802;28;19932;-58
2021/05/03 13:55:48;;;;;;;;;;;12.80;97.90;;;;;;5091847;28;19908;-60
2021/05/03 13:58:14;;;;;;;;;;;12.70;98.30;;;;;;5091164;28;20010;-59
2021/05/03 14:00:40;;;;;;;;;;;12.60;98.80;;;;;;5092356;28;19920;-60
2021/05/03 14:03:06;;;;;;;;;;;12.70;98.50;;;;;;5092833;28;19914;-59
2021/05/03 14:05:32;;;;;;;;;;;13.10;97.90;;;;;;5091967;28;20273;-59
2021/05/03 14:07:57;;;;;;;;;;;13.80;97.80;;;;;;5094326;28;19916;-58
2021/05/03 14:10:23;;;;;;;;;;;14.20;96.50;;;;;;5101789;28;20007;-58
2021/05/03 14:12:49;;;;;;;;;;;14.00;97.20;;;;;;5107944;28;19918;-59
2021/05/03 14:15:22;;;;;;;;;;;14.20;96.10;;;;;;5098776;28;20395;-59
2021/05/03 14:17:48;;;;;;;;;;;14.20;95.60;;;;;;5091013;28;19935;-60
2021/05/03 14:20:14;;;;;;;;;;;14.70;95.30;;;;;;5091924;28;19912;-60
2021/05/03 14:22:40;;;;;;;;;;;15.10;94.50;;;;;;5083338;28;19928;-58
2021/05/03 14:25:07;;;;;;;;;;;15.30;94.60;;;;;;5092069;28;19912;-60
2021/05/03 14:27:34;;;;;;;;;;;15.90;93.40;;;;;;5091212;28;19912;-60
2021/05/03 14:30:08;;;;;;;;;;;16.50;92.30;;;;;;5091401;28;19919;-60
2021/05/03 14:32:40;;;;;;;;;;;16.70;90.40;;;;;;5092348;28;19919;-59
2021/05/03 14:35:09;;;;;;;;;;;16.00;90.00;;;;;;5092117;28;19927;-59
2021/05/03 14:37:35;;;;;;;;;;;15.50;91.60;;;;;;5091804;28;20352;-59
2021/05/03 14:40:01;;;;;;;;;;;15.40;91.20;;;;;;5090423;28;19908;-59
2021/05/03 14:42:27;;;;;;;;;;;14.40;90.50;;;;;;5092279;28;19931;-58
2021/05/03 14:44:53;;;;;;;;;;;13.80;93.40;;;;;;5092185;28;19908;-59
2021/05/03 14:47:27;;;;;;;;;;;13.20;93.70;;;;;;5103438;28;19916;-59
2021/05/03 14:50:09;;;;;;;;;;;12.80;94.30;;;;;;5111230;28;19911;-58
2021/05/03 14:55:13;;;;;;;;;;;12.70;95.10;;;;;;5106702;28;20001;-59
2021/05/03 14:57:39;;;;;;;;;;;12.40;96.60;;;;;;5102033;28;19908;-59
2021/05/03 15:00:05;;;;;;;;;;;12.70;98.00;;;;;;5097374;28;20364;-59
2021/05/03 15:02:31;;;;;;;;;;;13.00;97.30;;;;;;5071583;28;20388;-59
2021/05/03 15:04:58;;;;;;;;;;;13.20;96.70;;;;;;5089815;28;19931;-59
2021/05/03 15:07:24;;;;;;;;;;;13.30;97.20;;;;;;5091197;28;19912;-59
2021/05/03 15:09:51;;;;;;;;;;;13.00;95.70;;;;;;5092292;28;19912;-59
2021/05/03 15:12:30;;;;;;;;;;;12.50;96.70;;;;;;5092227;28;19934;-59
2021/05/03 15:22:35;;;;;;;;;;;11.50;99.20;;;;;;5095790;28;19916;-59
2021/05/03 15:25:03;;;;;;;;;;;11.50;99.10;;;;;;5095810;28;19908;-60
2021/05/03 15:35:28;;;;;;;;;;;11.60;99.50;;;;;;5097718;28;19920;-58
2021/05/03 15:37:54;;;;;;;;;;;11.60;98.80;;;;;;5094953;28;19916;-60
2021/05/03 15:40:20;;;;;;;;;;;11.80;99.10;;;;;;5094677;28;20368;-59
2021/05/03 15:42:47;;;;;;;;;;;11.70;99.30;;;;;;5094101;28;20280;-59